PWSweather.com
Personal Weather Stations
Station Observations
SWHWX01
St AppolinardFR 38160

St AppolinardFR 38160

Lat: 45.191, Lon: 5.268

Elevation: 1460

Station Type: Davis Vantage Pro2 Plus

www.sweetwebhome.com/?show=wxindex

High Low Average
Temperature 70.6°F21.4°C 55.7°F13.2°C 62.1°F16.7°C
Dew Point 61.3°F16.3°C 53.8°F12.1°C 57.5°F14.2°C
Winds 9.2 mph 14.8 kmh Calm Calm 3.0 mph W4.8 kmh W
Wind Gusts 13.0 mph20.9 kmh -- 5.0 mph8.0 kmh
Humidity 95% 71% 85%
Pressure 30.07 in1018.3 mb 29.89 in1012.2 mb -
Precipitation 0.02 in0.5 mm - -
Hour Temp Dew Point Humidity Winds Wind Gusts Pressure Precip Precip Rate Daily Precip Total
12:00 AM 56.6°F13.7°C 54.9°F12.7°C 94% Calm Calm -- 29.92 in1013.2 mb - 0.00 in0.0 mm 0.00 in0.0 mm
12:30 AM 56.6°F13.7°C 54.9°F12.7°C 94% Calm Calm -- 29.91 in1012.9 mb - 0.00 in0.0 mm 0.00 in0.0 mm
01:00 AM 56.3°F13.5°C 54.9°F12.7°C 95% 0.2 mph NW0.3 kmh NW 1.0 mph1.6 kmh 29.91 in1012.9 mb - 0.00 in0.0 mm 0.00 in0.0 mm
01:30 AM 56.4°F13.6°C 55.0°F12.8°C 95% 0.3 mph NW0.5 kmh NW 2.0 mph3.2 kmh 29.91 in1012.9 mb - 0.00 in0.0 mm 0.00 in0.0 mm
02:00 AM 56.4°F13.6°C 54.7°F12.6°C 94% 0.6 mph NW1.0 kmh NW 1.0 mph1.6 kmh 29.90 in1012.5 mb - 0.00 in0.0 mm 0.00 in0.0 mm
02:30 AM 56.5°F13.6°C 54.5°F12.5°C 93% 3.8 mph NW6.1 kmh NW 5.0 mph8.0 kmh 29.91 in1012.9 mb - 0.00 in0.0 mm 0.00 in0.0 mm
03:00 AM 56.6°F13.7°C 54.9°F12.7°C 94% Calm Calm -- 29.91 in1012.9 mb - 0.00 in0.0 mm 0.00 in0.0 mm
03:30 AM 56.4°F13.6°C 54.7°F12.6°C 94% 2.7 mph NW4.3 kmh NW 4.0 mph6.4 kmh 29.89 in1012.2 mb - 0.02 in0.5 mm 0.02 in0.5 mm
04:00 AM 56.5°F13.6°C 54.8°F12.7°C 94% Calm Calm -- 29.89 in1012.2 mb - 0.00 in0.0 mm 0.02 in0.5 mm
04:30 AM 56.3°F13.5°C 54.6°F12.6°C 94% 3.9 mph NW6.3 kmh NW 4.0 mph6.4 kmh 29.89 in1012.2 mb - 0.00 in0.0 mm 0.02 in0.5 mm
05:00 AM 56.1°F13.4°C 54.4°F12.4°C 94% Calm Calm -- 29.89 in1012.2 mb - 0.00 in0.0 mm 0.02 in0.5 mm
05:30 AM 56.2°F13.4°C 54.5°F12.5°C 94% 3.3 mph NW5.3 kmh NW 4.0 mph6.4 kmh 29.89 in1012.2 mb - 0.00 in0.0 mm 0.02 in0.5 mm
06:00 AM 56.6°F13.7°C 54.0°F12.2°C 91% 2.2 mph NW3.5 kmh NW 3.0 mph4.8 kmh 29.89 in1012.2 mb - 0.00 in0.0 mm 0.02 in0.5 mm
06:30 AM 56.1°F13.4°C 53.8°F12.1°C 92% Calm Calm -- 29.90 in1012.5 mb - 0.00 in0.0 mm 0.02 in0.5 mm
07:00 AM 55.7°F13.2°C 54.0°F12.2°C 94% Calm Calm -- 29.91 in1012.9 mb - 0.00 in0.0 mm 0.02 in0.5 mm
07:30 AM 55.8°F13.2°C 54.1°F12.3°C 94% 0.9 mph NW1.4 kmh NW 2.0 mph3.2 kmh 29.92 in1013.2 mb - 0.00 in0.0 mm 0.02 in0.5 mm
08:00 AM 56.4°F13.6°C 54.7°F12.6°C 94% 0.5 mph NW0.8 kmh NW 2.0 mph3.2 kmh 29.92 in1013.2 mb - 0.00 in0.0 mm 0.02 in0.5 mm
08:30 AM 58.4°F14.7°C 56.1°F13.4°C 92% 1.3 mph NW2.1 kmh NW 3.0 mph4.8 kmh 29.92 in1013.2 mb - 0.00 in0.0 mm 0.02 in0.5 mm
09:00 AM 60.1°F15.6°C 55.9°F13.3°C 86% 0.1 mph NW0.2 kmh NW 1.0 mph1.6 kmh 29.94 in1013.9 mb - 0.00 in0.0 mm 0.02 in0.5 mm
09:30 AM 62.1°F16.7°C 56.5°F13.6°C 82% 3.9 mph NW6.3 kmh NW 5.0 mph8.0 kmh 29.95 in1014.2 mb - 0.00 in0.0 mm 0.02 in0.5 mm
10:00 AM 64.0°F17.8°C 57.7°F14.3°C 80% 2.0 mph NW3.2 kmh NW 4.0 mph6.4 kmh 29.95 in1014.2 mb - 0.00 in0.0 mm 0.02 in0.5 mm
10:30 AM 65.1°F18.4°C 57.7°F14.3°C 77% 2.7 mph NW4.3 kmh NW 4.0 mph6.4 kmh 29.95 in1014.2 mb - 0.00 in0.0 mm 0.02 in0.5 mm
11:00 AM 65.9°F18.8°C 58.9°F14.9°C 78% 2.9 mph NW4.7 kmh NW 4.0 mph6.4 kmh 29.95 in1014.2 mb - 0.00 in0.0 mm 0.02 in0.5 mm
11:30 AM 66.1°F18.9°C 59.1°F15.1°C 78% 3.1 mph NW5.0 kmh NW 8.0 mph12.9 kmh 29.95 in1014.2 mb - 0.00 in0.0 mm 0.02 in0.5 mm
12:00 PM 67.3°F19.6°C 59.8°F15.4°C 77% 3.1 mph SW5.0 kmh SW 6.0 mph9.7 kmh 29.95 in1014.2 mb - 0.00 in0.0 mm 0.02 in0.5 mm
12:30 PM 69.0°F20.6°C 59.3°F15.2°C 71% 4.4 mph SSW7.1 kmh SSW 7.0 mph11.3 kmh 29.95 in1014.2 mb - 0.00 in0.0 mm 0.02 in0.5 mm
01:00 PM 68.8°F20.4°C 59.4°F15.2°C 72% 2.8 mph SW4.5 kmh SW 7.0 mph11.3 kmh 29.94 in1013.9 mb - 0.00 in0.0 mm 0.02 in0.5 mm
01:30 PM 70.6°F21.4°C 60.8°F16.0°C 71% 0.7 mph SW1.1 kmh SW 6.0 mph9.7 kmh 29.94 in1013.9 mb - 0.00 in0.0 mm 0.02 in0.5 mm
02:00 PM 69.7°F20.9°C 60.3°F15.7°C 72% 6.3 mph SW10.1 kmh SW 10.0 mph16.1 kmh 29.94 in1013.9 mb - 0.00 in0.0 mm 0.02 in0.5 mm
02:30 PM 70.0°F21.1°C 60.1°F15.6°C 71% 7.2 mph WSW11.6 kmh WSW 12.0 mph19.3 kmh 29.93 in1013.5 mb - 0.00 in0.0 mm 0.02 in0.5 mm
03:00 PM 70.5°F21.4°C 61.0°F16.1°C 72% 6.1 mph SW9.8 kmh SW 8.0 mph12.9 kmh 29.92 in1013.2 mb - 0.00 in0.0 mm 0.02 in0.5 mm
03:30 PM 69.3°F20.7°C 61.0°F16.1°C 75% 7.3 mph WSW11.7 kmh WSW 12.0 mph19.3 kmh 29.93 in1013.5 mb - 0.00 in0.0 mm 0.02 in0.5 mm
04:00 PM 68.3°F20.2°C 61.2°F16.2°C 78% 9.2 mph WSW14.8 kmh WSW 13.0 mph20.9 kmh 29.93 in1013.5 mb - 0.00 in0.0 mm 0.02 in0.5 mm
04:30 PM 68.5°F20.3°C 61.0°F16.1°C 77% 6.7 mph WSW10.8 kmh WSW 12.0 mph19.3 kmh 29.94 in1013.9 mb - 0.00 in0.0 mm 0.02 in0.5 mm
05:00 PM 67.6°F19.8°C 61.3°F16.3°C 80% 3.6 mph SW5.8 kmh SW 7.0 mph11.3 kmh 29.95 in1014.2 mb - 0.00 in0.0 mm 0.02 in0.5 mm
05:30 PM 67.1°F19.5°C 61.1°F16.2°C 81% 5.4 mph SW8.7 kmh SW 7.0 mph11.3 kmh 29.96 in1014.6 mb - 0.00 in0.0 mm 0.02 in0.5 mm
06:00 PM 66.0°F18.9°C 60.6°F15.9°C 83% 4.4 mph WSW7.1 kmh WSW 6.0 mph9.7 kmh 29.98 in1015.2 mb - 0.00 in0.0 mm 0.02 in0.5 mm
06:30 PM 65.2°F18.4°C 60.6°F15.9°C 85% 2.4 mph WSW3.9 kmh WSW 6.0 mph9.7 kmh 29.99 in1015.6 mb - 0.00 in0.0 mm 0.02 in0.5 mm
07:00 PM 64.7°F18.2°C 59.7°F15.4°C 84% 3.5 mph WSW5.6 kmh WSW 4.0 mph6.4 kmh 30.00 in1015.9 mb - 0.00 in0.0 mm 0.02 in0.5 mm
07:30 PM 63.9°F17.7°C 59.3°F15.2°C 85% 2.5 mph WSW4.0 kmh WSW 4.0 mph6.4 kmh 30.01 in1016.3 mb - 0.00 in0.0 mm 0.02 in0.5 mm
08:00 PM 63.2°F17.3°C 58.9°F14.9°C 86% 3.4 mph SW5.5 kmh SW 5.0 mph8.0 kmh 30.03 in1016.9 mb - 0.00 in0.0 mm 0.02 in0.5 mm
08:30 PM 62.8°F17.1°C 58.6°F14.8°C 86% 2.1 mph SW3.4 kmh SW 6.0 mph9.7 kmh 30.04 in1017.3 mb - 0.00 in0.0 mm 0.02 in0.5 mm
09:00 PM 62.4°F16.9°C 58.5°F14.7°C 87% 2.0 mph SW3.2 kmh SW 5.0 mph8.0 kmh 30.04 in1017.3 mb - 0.00 in0.0 mm 0.02 in0.5 mm
09:30 PM 61.8°F16.6°C 57.9°F14.4°C 87% 0.1 mph SW0.2 kmh SW -- 30.05 in1017.6 mb - 0.00 in0.0 mm 0.02 in0.5 mm
10:00 PM 61.9°F16.6°C 58.0°F14.4°C 87% 3.9 mph WSW6.3 kmh WSW 7.0 mph11.3 kmh 30.05 in1017.6 mb - 0.00 in0.0 mm 0.02 in0.5 mm
10:30 PM 61.8°F16.6°C 57.9°F14.4°C 87% 2.9 mph WSW4.7 kmh WSW 6.0 mph9.7 kmh 30.06 in1017.9 mb - 0.00 in0.0 mm 0.02 in0.5 mm
11:00 PM 61.4°F16.3°C 57.8°F14.3°C 88% 4.2 mph WSW6.8 kmh WSW 6.0 mph9.7 kmh 30.07 in1018.3 mb - 0.00 in0.0 mm 0.02 in0.5 mm
11:30 PM 61.1°F16.2°C 57.6°F14.2°C 88% 0.1 mph SW0.2 kmh SW 1.0 mph1.6 kmh 30.07 in1018.3 mb - 0.00 in0.0 mm 0.02 in0.5 mm